createdAt,value
2023-12-11T00:03:50.959Z,17.27
2023-12-11T00:08:54.127Z,16.33
2023-12-11T00:13:59.024Z,16.60
2023-12-11T00:19:02.061Z,22.13
2023-12-11T00:24:05.569Z,21.13
2023-12-11T00:29:09.457Z,17.97
2023-12-11T00:34:13.180Z,14.47
2023-12-11T00:39:18.160Z,14.83
2023-12-11T00:44:21.416Z,15.73
2023-12-11T00:49:24.806Z,13.47
2023-12-11T00:54:28.026Z,11.97
2023-12-11T00:59:31.117Z,17.93
2023-12-11T01:04:34.510Z,15.47
2023-12-11T01:09:38.001Z,17.83
2023-12-11T01:14:41.277Z,15.57
2023-12-11T01:19:44.713Z,13.30
2023-12-11T01:24:47.837Z,15.83
2023-12-11T01:29:50.787Z,19.93
2023-12-11T01:34:54.144Z,16.10
2023-12-11T01:39:57.326Z,13.70
2023-12-11T01:45:00.718Z,16.43
2023-12-11T01:50:04.662Z,13.53
2023-12-11T01:55:08.304Z,14.77
2023-12-11T02:00:12.373Z,12.80
2023-12-11T02:05:15.450Z,7.13
2023-12-11T02:10:18.917Z,8.50
2023-12-11T02:15:38.516Z,10.03
2023-12-11T02:20:42.800Z,6.50
2023-12-11T02:25:49.965Z,7.80
2023-12-11T02:30:53.027Z,8.30
2023-12-11T02:35:56.102Z,7.67
2023-12-11T02:40:59.132Z,4.93
2023-12-11T02:46:02.099Z,8.97
2023-12-11T02:51:05.924Z,9.17
2023-12-11T02:56:09.707Z,15.13
2023-12-11T03:01:13.336Z,8.63
2023-12-11T03:06:21.059Z,11.40
2023-12-11T03:11:23.961Z,10.77
2023-12-11T03:16:26.865Z,5.87
2023-12-11T03:21:30.523Z,9.80
2023-12-11T03:26:33.837Z,9.07
2023-12-11T03:31:38.288Z,9.83
2023-12-11T03:36:41.784Z,11.03
2023-12-11T03:41:46.202Z,15.57
2023-12-11T03:46:49.444Z,11.47
2023-12-11T03:51:53.122Z,13.07
2023-12-11T03:56:56.367Z,10.43
2023-12-11T04:02:00.510Z,13.47
2023-12-11T04:07:04.458Z,12.93
2023-12-11T04:12:08.430Z,16.67
2023-12-11T04:17:11.583Z,11.70
2023-12-11T04:22:14.925Z,17.90
2023-12-11T04:27:18.456Z,7.57
2023-12-11T04:32:22.005Z,16.30
2023-12-11T04:37:25.238Z,12.93
2023-12-11T04:42:28.435Z,10.67
2023-12-11T04:47:31.827Z,6.23
2023-12-11T04:52:35.420Z,15.97
2023-12-11T04:57:38.610Z,10.30
2023-12-11T05:02:42.375Z,10.67
2023-12-11T05:07:45.866Z,10.93
2023-12-11T05:12:49.376Z,10.93
2023-12-11T05:17:53.129Z,9.63
2023-12-11T05:22:56.287Z,13.60
2023-12-11T05:27:59.615Z,10.20
2023-12-11T05:33:03.299Z,11.07
2023-12-11T05:38:06.584Z,17.00
2023-12-11T05:43:09.718Z,10.47
2023-12-11T05:48:13.234Z,8.77
2023-12-11T05:53:16.730Z,15.40
2023-12-11T05:58:20.334Z,15.30
2023-12-11T06:03:23.425Z,12.07
2023-12-11T06:08:27.921Z,14.83
2023-12-11T06:13:31.548Z,12.83
2023-12-11T06:18:35.112Z,14.10
2023-12-11T06:23:38.271Z,9.93
2023-12-11T06:28:41.624Z,12.10
2023-12-11T06:33:45.347Z,6.53
2023-12-11T06:38:51.977Z,12.07
2023-12-11T06:43:59.406Z,10.57
2023-12-11T06:49:03.996Z,7.80
2023-12-11T06:54:07.613Z,9.10
2023-12-11T06:59:10.826Z,8.00
2023-12-11T07:04:14.448Z,10.13
2023-12-11T07:09:17.855Z,9.07
2023-12-11T07:14:21.855Z,8.43
2023-12-11T07:19:25.310Z,9.13
2023-12-11T07:24:28.728Z,11.87
2023-12-11T07:29:32.209Z,10.77
2023-12-11T07:34:36.582Z,16.80
2023-12-11T07:39:40.368Z,7.83
2023-12-11T07:44:43.733Z,7.10
2023-12-11T07:49:46.991Z,9.00
2023-12-11T07:54:51.133Z,8.10
2023-12-11T07:59:55.102Z,14.23
2023-12-11T08:04:58.760Z,10.53
2023-12-11T08:10:03.130Z,8.93
2023-12-11T08:15:07.108Z,7.93
2023-12-11T08:20:13.554Z,5.07
2023-12-11T08:25:17.370Z,6.43
2023-12-11T08:30:21.101Z,9.13
2023-12-11T08:35:24.553Z,18.03
2023-12-11T08:40:28.104Z,14.33
2023-12-11T08:45:31.700Z,11.63
2023-12-11T08:50:34.922Z,11.20
2023-12-11T08:55:39.765Z,12.17
2023-12-11T09:00:45.963Z,9.80
2023-12-11T09:05:49.481Z,12.57
2023-12-11T09:10:52.963Z,11.40
2023-12-11T09:15:56.341Z,11.37
2023-12-11T09:20:59.734Z,9.37
2023-12-11T09:26:02.821Z,10.90
2023-12-11T09:31:06.691Z,15.07
2023-12-11T09:36:10.161Z,9.33
2023-12-11T09:41:13.850Z,7.13
2023-12-11T09:46:19.628Z,13.57
2023-12-11T09:51:23.682Z,24.77
2023-12-11T09:56:26.925Z,8.60
2023-12-11T10:01:31.457Z,11.23
2023-12-11T10:06:35.091Z,11.67
2023-12-11T10:11:38.565Z,7.77
2023-12-11T10:16:42.138Z,8.83
2023-12-11T10:21:45.918Z,8.17
2023-12-11T10:26:57.335Z,7.60
2023-12-11T10:32:05.861Z,9.97
2023-12-11T10:37:10.428Z,9.57
2023-12-11T10:42:18.052Z,6.00
2023-12-11T10:47:21.756Z,10.33
2023-12-11T10:52:25.713Z,8.13
2023-12-11T10:57:31.618Z,9.47
2023-12-11T11:02:36.456Z,6.57
2023-12-11T11:07:53.893Z,8.17
2023-12-11T11:13:24.865Z,6.43
2023-12-11T11:18:28.320Z,9.13
2023-12-11T11:23:34.091Z,7.83
2023-12-11T11:28:45.782Z,12.77
2023-12-11T11:33:51.796Z,6.93
2023-12-11T11:39:01.675Z,7.23
2023-12-11T11:44:10.737Z,5.27
2023-12-11T11:49:34.121Z,5.90
2023-12-11T11:54:40.061Z,8.73
2023-12-11T11:59:44.750Z,8.47
2023-12-11T12:04:48.680Z,6.87
2023-12-11T12:10:01.004Z,8.50
2023-12-11T12:15:07.303Z,12.73
2023-12-11T12:20:16.570Z,11.27
2023-12-11T12:25:20.463Z,9.20
2023-12-11T12:30:24.549Z,9.20
2023-12-11T12:35:29.053Z,9.53
2023-12-11T12:40:36.520Z,6.73
2023-12-11T12:45:40.791Z,4.77
2023-12-11T12:50:44.569Z,6.10
2023-12-11T12:55:48.246Z,7.77
2023-12-11T13:00:59.396Z,6.13
2023-12-11T13:06:06.440Z,9.10
2023-12-11T13:11:09.732Z,12.33
2023-12-11T13:16:13.271Z,5.27
2023-12-11T13:21:17.016Z,9.30
2023-12-11T13:26:21.779Z,6.17
2023-12-11T13:31:26.083Z,8.47
2023-12-11T13:36:30.152Z,7.77
2023-12-11T13:41:38.300Z,11.73
2023-12-11T13:46:42.062Z,5.80
2023-12-11T13:51:45.628Z,8.37
2023-12-11T13:56:50.153Z,7.90
2023-12-11T14:01:53.578Z,11.63
2023-12-11T14:06:59.373Z,10.43
2023-12-11T14:12:03.122Z,9.13
2023-12-11T14:17:09.420Z,7.70
2023-12-11T14:22:12.987Z,8.97
2023-12-11T14:27:16.400Z,8.20
2023-12-11T14:32:19.600Z,11.13
2023-12-11T14:37:23.158Z,9.70
2023-12-11T14:42:28.433Z,8.40
2023-12-11T14:47:32.428Z,11.13
2023-12-11T14:52:36.024Z,9.77
2023-12-11T14:57:39.340Z,9.37
2023-12-11T15:02:43.652Z,14.80
2023-12-11T15:07:48.567Z,9.57
2023-12-11T15:12:51.711Z,13.37
2023-12-11T15:17:55.441Z,8.90
2023-12-11T15:22:58.857Z,8.13
2023-12-11T15:28:02.853Z,12.10
2023-12-11T15:33:07.556Z,14.23
2023-12-11T15:38:11.143Z,13.03
2023-12-11T15:43:15.377Z,17.63
2023-12-11T15:48:24.229Z,15.97
2023-12-11T15:53:28.620Z,13.50
2023-12-11T15:58:32.110Z,12.27
2023-12-11T16:03:36.008Z,12.20
2023-12-11T16:08:39.553Z,11.43
2023-12-11T16:13:43.532Z,14.50
2023-12-11T16:18:48.277Z,19.10
2023-12-11T16:23:52.078Z,16.60
2023-12-11T16:28:55.577Z,17.47
2023-12-11T16:34:00.983Z,21.27
2023-12-11T16:39:04.555Z,26.63
2023-12-11T16:44:08.247Z,25.03
2023-12-11T16:49:15.636Z,11.43
2023-12-11T16:54:19.181Z,9.30
2023-12-11T16:59:22.400Z,15.67
2023-12-11T17:04:26.124Z,20.53
2023-12-11T17:09:31.168Z,17.93
2023-12-11T17:14:34.617Z,21.87
2023-12-11T17:19:38.357Z,20.03
2023-12-11T17:24:41.685Z,17.47
2023-12-11T17:29:45.494Z,16.77
2023-12-11T17:34:50.393Z,20.90
2023-12-11T17:39:54.947Z,18.30
2023-12-11T17:44:58.679Z,14.67
2023-12-11T17:50:01.913Z,17.23
2023-12-11T17:55:08.054Z,16.43
2023-12-11T18:00:12.108Z,16.27
2023-12-11T18:05:17.461Z,12.73
2023-12-11T18:10:21.329Z,18.37
2023-12-11T18:15:24.739Z,14.67
2023-12-11T18:20:28.460Z,12.77
2023-12-11T18:25:33.188Z,18.53
2023-12-11T18:30:37.340Z,12.73
2023-12-11T18:35:40.860Z,12.63
2023-12-11T18:40:44.439Z,13.97
2023-12-11T18:45:47.887Z,21.83
2023-12-11T18:50:51.054Z,12.93
2023-12-11T18:56:00.673Z,18.73
2023-12-11T19:01:05.116Z,19.60
2023-12-11T19:06:09.460Z,12.30
2023-12-11T19:11:17.418Z,13.07
2023-12-11T19:16:21.015Z,14.33
2023-12-11T19:21:25.091Z,17.27
2023-12-11T19:26:28.594Z,13.37
2023-12-11T19:31:32.880Z,17.13
2023-12-11T19:36:40.537Z,20.80
2023-12-11T19:41:45.120Z,14.23
2023-12-11T19:46:48.769Z,14.43
2023-12-11T19:51:52.505Z,36.43
2023-12-11T19:56:57.090Z,54.27
2023-12-11T20:02:04.517Z,59.77
2023-12-11T20:07:14.124Z,66.87
2023-12-11T20:12:19.205Z,31.17
2023-12-11T20:17:25.129Z,25.47
2023-12-11T20:22:30.549Z,39.40
2023-12-11T20:27:36.970Z,44.10
2023-12-11T20:32:42.465Z,48.00
2023-12-11T20:37:46.569Z,32.97
2023-12-11T20:42:50.715Z,30.37
2023-12-11T20:47:56.737Z,30.83
2023-12-11T20:53:01.340Z,21.20
2023-12-11T20:58:05.934Z,26.30
2023-12-11T21:03:09.820Z,24.00
2023-12-11T21:08:15.123Z,19.63
2023-12-11T21:13:21.621Z,25.67
2023-12-11T21:18:29.918Z,16.80
2023-12-11T21:23:37.404Z,19.50
2023-12-11T21:28:42.222Z,16.07
2023-12-11T21:33:47.528Z,18.80
2023-12-11T21:38:51.407Z,16.50
2023-12-11T21:43:57.251Z,15.67
2023-12-11T21:49:02.967Z,18.20
2023-12-11T21:54:07.505Z,16.53
2023-12-11T21:59:12.225Z,18.40
2023-12-11T22:04:16.689Z,20.77
2023-12-11T22:09:20.806Z,24.13
2023-12-11T22:14:24.848Z,17.17
2023-12-11T22:19:28.458Z,15.30
2023-12-11T22:24:32.370Z,21.90
2023-12-11T22:29:37.561Z,16.60
2023-12-11T22:34:44.471Z,19.27
2023-12-11T22:39:48.151Z,16.83
2023-12-11T22:44:51.514Z,11.73
2023-12-11T22:49:55.428Z,15.47
2023-12-11T22:54:58.947Z,15.30
2023-12-11T23:00:03.421Z,15.90
2023-12-11T23:05:07.714Z,14.23
2023-12-11T23:10:12.923Z,12.17
2023-12-11T23:15:16.450Z,15.27
2023-12-11T23:20:20.219Z,15.20
2023-12-11T23:25:24.551Z,15.10
2023-12-11T23:30:27.696Z,16.13
2023-12-11T23:35:30.656Z,22.63
2023-12-11T23:40:33.789Z,16.57
2023-12-11T23:45:38.008Z,20.87
2023-12-11T23:50:41.767Z,18.17
2023-12-11T23:55:46.598Z,13.57
